sensor_id;sensor_type;location;lat;lon;timestamp;pressure;altitude;pressure_sealevel;temperature;humidity
10135;BME280;5107;48.850;8.924;2023-07-13T00:01:44;96830.69;;;19.60;56.28
10135;BME280;5107;48.850;8.924;2023-07-13T00:04:11;96826.38;;;19.59;56.48
10135;BME280;5107;48.850;8.924;2023-07-13T00:06:36;96818.47;;;19.52;56.43
10135;BME280;5107;48.850;8.924;2023-07-13T00:09:02;96827.56;;;19.45;56.14
10135;BME280;5107;48.850;8.924;2023-07-13T00:11:27;96830.44;;;19.43;56.33
10135;BME280;5107;48.850;8.924;2023-07-13T00:13:53;96834.22;;;19.36;56.02
10135;BME280;5107;48.850;8.924;2023-07-13T00:16:19;96823.53;;;19.36;56.36
10135;BME280;5107;48.850;8.924;2023-07-13T00:18:45;96813.75;;;19.29;56.48
10135;BME280;5107;48.850;8.924;2023-07-13T00:21:11;96822.81;;;19.28;56.79
10135;BME280;5107;48.850;8.924;2023-07-13T00:23:39;96819.75;;;19.25;56.74
10135;BME280;5107;48.850;8.924;2023-07-13T00:26:07;96821.84;;;19.23;56.59
10135;BME280;5107;48.850;8.924;2023-07-13T00:28:33;96817.16;;;19.18;56.78
10135;BME280;5107;48.850;8.924;2023-07-13T00:30:59;96809.00;;;19.13;56.96
10135;BME280;5107;48.850;8.924;2023-07-13T00:33:25;96818.03;;;19.12;57.56
10135;BME280;5107;48.850;8.924;2023-07-13T00:35:50;96808.91;;;19.02;57.44
10135;BME280;5107;48.850;8.924;2023-07-13T00:38:16;96807.53;;;18.99;57.50
10135;BME280;5107;48.850;8.924;2023-07-13T00:40:41;96811.66;;;18.95;57.57
10135;BME280;5107;48.850;8.924;2023-07-13T00:43:18;96797.91;;;18.91;57.82
10135;BME280;5107;48.850;8.924;2023-07-13T00:48:17;96791.19;;;18.89;57.56
10135;BME280;5107;48.850;8.924;2023-07-13T00:50:46;96793.25;;;18.87;57.81
10135;BME280;5107;48.850;8.924;2023-07-13T00:53:13;96803.13;;;18.86;57.68
10135;BME280;5107;48.850;8.924;2023-07-13T00:55:39;96805.56;;;18.88;57.96
10135;BME280;5107;48.850;8.924;2023-07-13T00:58:05;96804.59;;;18.82;58.23
10135;BME280;5107;48.850;8.924;2023-07-13T01:00:34;96804.81;;;18.81;57.89
10135;BME280;5107;48.850;8.924;2023-07-13T01:03:00;96801.94;;;18.82;57.94
10135;BME280;5107;48.850;8.924;2023-07-13T01:05:30;96803.31;;;18.85;58.19
10135;BME280;5107;48.850;8.924;2023-07-13T01:07:57;96811.31;;;18.85;57.81
10135;BME280;5107;48.850;8.924;2023-07-13T01:10:24;96812.34;;;18.84;57.49
10135;BME280;5107;48.850;8.924;2023-07-13T01:12:51;96809.75;;;18.77;57.72
10135;BME280;5107;48.850;8.924;2023-07-13T01:15:45;96810.63;;;18.71;58.00
10135;BME280;5107;48.850;8.924;2023-07-13T01:18:23;96815.16;;;18.71;57.87
10135;BME280;5107;48.850;8.924;2023-07-13T01:23:22;96818.50;;;18.66;58.04
10135;BME280;5107;48.850;8.924;2023-07-13T01:25:48;96813.59;;;18.63;58.24
10135;BME280;5107;48.850;8.924;2023-07-13T01:28:13;96809.94;;;18.58;58.29
10135;BME280;5107;48.850;8.924;2023-07-13T01:30:40;96806.03;;;18.53;58.21
10135;BME280;5107;48.850;8.924;2023-07-13T01:33:07;96812.03;;;18.49;58.17
10135;BME280;5107;48.850;8.924;2023-07-13T01:35:33;96816.31;;;18.50;58.42
10135;BME280;5107;48.850;8.924;2023-07-13T01:37:58;96811.25;;;18.42;58.39
10135;BME280;5107;48.850;8.924;2023-07-13T01:40:25;96815.31;;;18.44;57.96
10135;BME280;5107;48.850;8.924;2023-07-13T01:42:50;96807.53;;;18.43;58.41
10135;BME280;5107;48.850;8.924;2023-07-13T01:45:16;96806.97;;;18.41;58.47
10135;BME280;5107;48.850;8.924;2023-07-13T01:47:41;96809.22;;;18.37;58.63
10135;BME280;5107;48.850;8.924;2023-07-13T01:50:06;96809.22;;;18.37;58.58
10135;BME280;5107;48.850;8.924;2023-07-13T01:52:32;96808.84;;;18.34;59.07
10135;BME280;5107;48.850;8.924;2023-07-13T01:54:57;96809.66;;;18.34;58.63
10135;BME280;5107;48.850;8.924;2023-07-13T01:57:22;96803.75;;;18.32;59.04
10135;BME280;5107;48.850;8.924;2023-07-13T01:59:48;96810.53;;;18.28;58.86
10135;BME280;5107;48.850;8.924;2023-07-13T02:02:13;96807.03;;;18.28;58.64
10135;BME280;5107;48.850;8.924;2023-07-13T02:04:40;96814.22;;;18.27;59.07
10135;BME280;5107;48.850;8.924;2023-07-13T02:07:05;96806.22;;;18.27;58.84
10135;BME280;5107;48.850;8.924;2023-07-13T02:09:31;96804.44;;;18.21;58.99
10135;BME280;5107;48.850;8.924;2023-07-13T02:11:56;96815.28;;;18.19;59.00
10135;BME280;5107;48.850;8.924;2023-07-13T02:14:21;96812.84;;;18.18;58.97
10135;BME280;5107;48.850;8.924;2023-07-13T02:16:47;96809.34;;;18.17;59.47
10135;BME280;5107;48.850;8.924;2023-07-13T02:19:13;96815.97;;;18.15;59.86
10135;BME280;5107;48.850;8.924;2023-07-13T02:21:39;96814.78;;;18.04;59.85
10135;BME280;5107;48.850;8.924;2023-07-13T02:24:04;96818.88;;;18.00;60.13
10135;BME280;5107;48.850;8.924;2023-07-13T02:26:29;96818.69;;;18.02;60.28
10135;BME280;5107;48.850;8.924;2023-07-13T02:28:55;96824.44;;;17.99;60.62
10135;BME280;5107;48.850;8.924;2023-07-13T02:31:20;96829.47;;;17.82;60.99
10135;BME280;5107;48.850;8.924;2023-07-13T02:33:45;96833.38;;;17.66;61.38
10135;BME280;5107;48.850;8.924;2023-07-13T02:36:11;96828.28;;;17.71;61.42
10135;BME280;5107;48.850;8.924;2023-07-13T02:38:37;96839.31;;;17.68;61.96
10135;BME280;5107;48.850;8.924;2023-07-13T02:41:04;96830.97;;;17.52;61.37
10135;BME280;5107;48.850;8.924;2023-07-13T02:43:29;96829.16;;;17.45;62.37
10135;BME280;5107;48.850;8.924;2023-07-13T02:45:55;96837.94;;;17.46;62.76
10135;BME280;5107;48.850;8.924;2023-07-13T02:48:20;96833.91;;;17.30;62.99
10135;BME280;5107;48.850;8.924;2023-07-13T02:50:45;96839.44;;;17.16;63.16
10135;BME280;5107;48.850;8.924;2023-07-13T02:53:11;96837.00;;;17.14;63.72
10135;BME280;5107;48.850;8.924;2023-07-13T02:55:37;96836.59;;;17.17;64.15
10135;BME280;5107;48.850;8.924;2023-07-13T02:58:02;96843.75;;;17.23;64.18
10135;BME280;5107;48.850;8.924;2023-07-13T03:00:28;96848.25;;;17.16;64.94
10135;BME280;5107;48.850;8.924;2023-07-13T03:02:53;96848.25;;;17.16;65.35
10135;BME280;5107;48.850;8.924;2023-07-13T03:05:22;96842.13;;;17.02;65.16
10135;BME280;5107;48.850;8.924;2023-07-13T03:07:48;96844.78;;;17.02;65.04
10135;BME280;5107;48.850;8.924;2023-07-13T03:10:13;96841.34;;;16.95;65.28
10135;BME280;5107;48.850;8.924;2023-07-13T03:12:38;96845.84;;;16.95;65.31
10135;BME280;5107;48.850;8.924;2023-07-13T03:15:04;96846.44;;;17.03;65.55
10135;BME280;5107;48.850;8.924;2023-07-13T03:17:30;96851.53;;;17.18;64.96
10135;BME280;5107;48.850;8.924;2023-07-13T03:19:55;96851.91;;;17.28;64.80
10135;BME280;5107;48.850;8.924;2023-07-13T03:22:21;96850.09;;;17.22;64.98
10135;BME280;5107;48.850;8.924;2023-07-13T03:24:46;96854.59;;;17.08;65.10
10135;BME280;5107;48.850;8.924;2023-07-13T03:27:11;96849.69;;;16.99;65.10
10135;BME280;5107;48.850;8.924;2023-07-13T03:29:37;96850.31;;;17.01;65.41
10135;BME280;5107;48.850;8.924;2023-07-13T03:32:02;96863.00;;;17.05;65.05
10135;BME280;5107;48.850;8.924;2023-07-13T03:34:29;96857.91;;;16.97;64.38
10135;BME280;5107;48.850;8.924;2023-07-13T03:36:55;96873.63;;;16.92;65.15
10135;BME280;5107;48.850;8.924;2023-07-13T03:39:20;96867.91;;;16.82;65.21
10135;BME280;5107;48.850;8.924;2023-07-13T03:41:46;96873.03;;;17.03;65.36
10135;BME280;5107;48.850;8.924;2023-07-13T03:44:11;96870.78;;;17.14;65.09
10135;BME280;5107;48.850;8.924;2023-07-13T03:46:36;96873.41;;;17.27;65.03
10135;BME280;5107;48.850;8.924;2023-07-13T03:49:04;96891.22;;;17.20;66.04
10135;BME280;5107;48.850;8.924;2023-07-13T03:51:29;96882.84;;;17.10;66.46
10135;BME280;5107;48.850;8.924;2023-07-13T03:53:55;96897.59;;;17.05;66.66
10135;BME280;5107;48.850;8.924;2023-07-13T03:56:21;96895.72;;;16.99;66.83
10135;BME280;5107;48.850;8.924;2023-07-13T03:58:47;96897.97;;;17.09;65.78
10135;BME280;5107;48.850;8.924;2023-07-13T04:01:14;96894.91;;;16.92;66.69
10135;BME280;5107;48.850;8.924;2023-07-13T04:03:40;96899.41;;;16.85;67.37
10135;BME280;5107;48.850;8.924;2023-07-13T04:06:07;96896.97;;;16.77;68.36
10135;BME280;5107;48.850;8.924;2023-07-13T04:08:34;96903.09;;;16.78;68.95
10135;BME280;5107;48.850;8.924;2023-07-13T04:11:01;96905.56;;;16.79;68.38
10135;BME280;5107;48.850;8.924;2023-07-13T04:13:27;96910.03;;;16.92;68.87
10135;BME280;5107;48.850;8.924;2023-07-13T04:15:53;96904.72;;;16.92;69.62
10135;BME280;5107;48.850;8.924;2023-07-13T04:18:18;96911.88;;;17.11;69.93
10135;BME280;5107;48.850;8.924;2023-07-13T04:20:48;96910.63;;;17.27;69.16
10135;BME280;5107;48.850;8.924;2023-07-13T04:23:15;96906.50;;;17.64;67.38
10135;BME280;5107;48.850;8.924;2023-07-13T04:25:43;96911.97;;;17.89;65.12
10135;BME280;5107;48.850;8.924;2023-07-13T04:28:09;96911.53;;;17.92;65.85
10135;BME280;5107;48.850;8.924;2023-07-13T04:30:34;96906.25;;;17.78;65.79
10135;BME280;5107;48.850;8.924;2023-07-13T04:33:00;96908.28;;;17.90;66.06
10135;BME280;5107;48.850;8.924;2023-07-13T04:35:25;96913.38;;;17.91;65.51
10135;BME280;5107;48.850;8.924;2023-07-13T04:37:51;96911.97;;;17.89;65.51
10135;BME280;5107;48.850;8.924;2023-07-13T04:40:17;96907.91;;;17.79;65.41
10135;BME280;5107;48.850;8.924;2023-07-13T04:42:44;96913.44;;;17.71;66.57
10135;BME280;5107;48.850;8.924;2023-07-13T04:45:10;96914.25;;;17.78;67.66
10135;BME280;5107;48.850;8.924;2023-07-13T04:47:35;96915.25;;;17.91;67.59
10135;BME280;5107;48.850;8.924;2023-07-13T04:50:01;96911.03;;;18.08;66.92
10135;BME280;5107;48.850;8.924;2023-07-13T04:52:26;96914.81;;;18.38;66.51
10135;BME280;5107;48.850;8.924;2023-07-13T04:54:51;96910.53;;;19.18;64.17
10135;BME280;5107;48.850;8.924;2023-07-13T04:57:17;96914.97;;;19.74;60.73
10135;BME280;5107;48.850;8.924;2023-07-13T04:59:42;96915.44;;;21.20;56.02
10135;BME280;5107;48.850;8.924;2023-07-13T05:02:07;96919.63;;;22.38;52.23
10135;BME280;5107;48.850;8.924;2023-07-13T05:04:33;96914.84;;;23.69;47.64
10135;BME280;5107;48.850;8.924;2023-07-13T05:06:59;96917.84;;;24.11;46.26
10135;BME280;5107;48.850;8.924;2023-07-13T05:09:25;96921.00;;;23.64;47.28
10135;BME280;5107;48.850;8.924;2023-07-13T05:11:50;96931.16;;;23.29;48.57
10135;BME280;5107;48.850;8.924;2023-07-13T05:14:15;96929.81;;;23.10;48.75
10135;BME280;5107;48.850;8.924;2023-07-13T05:16:42;96934.69;;;22.27;50.03
10135;BME280;5107;48.850;8.924;2023-07-13T05:19:08;96929.66;;;21.21;53.14
10135;BME280;5107;48.850;8.924;2023-07-13T05:21:33;96932.59;;;21.01;53.65
10135;BME280;5107;48.850;8.924;2023-07-13T05:23:59;96938.78;;;20.12;56.11
10135;BME280;5107;48.850;8.924;2023-07-13T05:26:24;96927.25;;;20.12;56.03
10135;BME280;5107;48.850;8.924;2023-07-13T05:28:49;96930.38;;;20.08;57.20
10135;BME280;5107;48.850;8.924;2023-07-13T05:31:14;96929.00;;;19.88;56.97
10135;BME280;5107;48.850;8.924;2023-07-13T05:33:40;96931.22;;;19.91;56.69
10135;BME280;5107;48.850;8.924;2023-07-13T05:36:08;96935.88;;;19.95;57.09
10135;BME280;5107;48.850;8.924;2023-07-13T05:38:34;96936.31;;;20.11;56.66
10135;BME280;5107;48.850;8.924;2023-07-13T05:40:59;96934.38;;;20.36;57.74
10135;BME280;5107;48.850;8.924;2023-07-13T05:43:25;96927.97;;;20.55;55.42
10135;BME280;5107;48.850;8.924;2023-07-13T05:45:56;96934.28;;;21.14;55.26
10135;BME280;5107;48.850;8.924;2023-07-13T05:48:22;96930.19;;;21.00;53.12
10135;BME280;5107;48.850;8.924;2023-07-13T05:50:47;96941.78;;;21.58;51.56
10135;BME280;5107;48.850;8.924;2023-07-13T05:53:13;96947.47;;;21.39;51.56
10135;BME280;5107;48.850;8.924;2023-07-13T05:55:46;96940.13;;;22.04;50.61
10135;BME280;5107;48.850;8.924;2023-07-13T05:58:18;96949.38;;;23.27;47.23
10135;BME280;5107;48.850;8.924;2023-07-13T06:00:43;96947.09;;;23.02;47.00
10135;BME280;5107;48.850;8.924;2023-07-13T06:03:08;96947.34;;;22.15;46.38
10135;BME280;5107;48.850;8.924;2023-07-13T06:05:35;96953.91;;;22.76;45.86
10135;BME280;5107;48.850;8.924;2023-07-13T06:08:02;96965.09;;;22.73;46.68
10135;BME280;5107;48.850;8.924;2023-07-13T06:10:27;96959.59;;;23.25;44.46
10135;BME280;5107;48.850;8.924;2023-07-13T06:12:53;96965.81;;;22.97;43.91
10135;BME280;5107;48.850;8.924;2023-07-13T06:15:19;96967.84;;;23.52;44.54
10135;BME280;5107;48.850;8.924;2023-07-13T06:17:44;96964.13;;;24.13;43.58
10135;BME280;5107;48.850;8.924;2023-07-13T06:20:10;96967.88;;;24.12;43.15
10135;BME280;5107;48.850;8.924;2023-07-13T06:22:35;96967.72;;;23.80;43.28
10135;BME280;5107;48.850;8.924;2023-07-13T06:25:01;96966.44;;;24.04;42.55
10135;BME280;5107;48.850;8.924;2023-07-13T06:27:26;96973.91;;;23.30;42.78
10135;BME280;5107;48.850;8.924;2023-07-13T06:29:51;96976.66;;;23.19;42.47
10135;BME280;5107;48.850;8.924;2023-07-13T06:32:17;96970.94;;;22.70;44.49
10135;BME280;5107;48.850;8.924;2023-07-13T06:34:42;96984.41;;;23.32;43.37
10135;BME280;5107;48.850;8.924;2023-07-13T06:37:09;96980.44;;;24.23;42.79
10135;BME280;5107;48.850;8.924;2023-07-13T06:39:34;96986.06;;;24.05;42.57
10135;BME280;5107;48.850;8.924;2023-07-13T06:41:59;96984.03;;;23.73;42.46
10135;BME280;5107;48.850;8.924;2023-07-13T06:44:25;96988.41;;;24.18;41.97
10135;BME280;5107;48.850;8.924;2023-07-13T06:46:50;96995.38;;;24.36;42.78
10135;BME280;5107;48.850;8.924;2023-07-13T06:49:15;97002.03;;;24.11;41.45
10135;BME280;5107;48.850;8.924;2023-07-13T06:51:41;97002.03;;;23.73;42.14
10135;BME280;5107;48.850;8.924;2023-07-13T06:54:06;96996.34;;;23.07;42.63
10135;BME280;5107;48.850;8.924;2023-07-13T06:56:32;97003.72;;;23.79;42.72
10135;BME280;5107;48.850;8.924;2023-07-13T06:58:57;96996.50;;;24.18;41.07
10135;BME280;5107;48.850;8.924;2023-07-13T07:01:22;96994.69;;;24.24;40.62
10135;BME280;5107;48.850;8.924;2023-07-13T07:03:48;96999.31;;;24.28;40.41
10135;BME280;5107;48.850;8.924;2023-07-13T07:06:21;97004.34;;;24.41;39.85
10135;BME280;5107;48.850;8.924;2023-07-13T07:08:49;97005.34;;;25.59;39.63
10135;BME280;5107;48.850;8.924;2023-07-13T07:11:23;97005.78;;;26.25;36.39
10135;BME280;5107;48.850;8.924;2023-07-13T07:13:50;97002.47;;;26.65;35.71
10135;BME280;5107;48.850;8.924;2023-07-13T07:16:16;96999.72;;;25.66;37.97
10135;BME280;5107;48.850;8.924;2023-07-13T07:18:41;97011.06;;;24.87;38.94
10135;BME280;5107;48.850;8.924;2023-07-13T07:21:06;97004.66;;;25.79;40.21
10135;BME280;5107;48.850;8.924;2023-07-13T07:23:32;97013.06;;;26.25;37.38
10135;BME280;5107;48.850;8.924;2023-07-13T07:25:58;97017.53;;;25.67;37.58
10135;BME280;5107;48.850;8.924;2023-07-13T07:28:23;97017.16;;;25.00;38.85
10135;BME280;5107;48.850;8.924;2023-07-13T07:30:52;97011.53;;;24.57;38.80
10135;BME280;5107;48.850;8.924;2023-07-13T07:33:18;97005.91;;;23.99;39.91
10135;BME280;5107;48.850;8.924;2023-07-13T07:35:43;97005.72;;;24.22;40.00
10135;BME280;5107;48.850;8.924;2023-07-13T07:38:09;97009.78;;;24.08;39.62
10135;BME280;5107;48.850;8.924;2023-07-13T07:40:41;97000.81;;;24.63;38.66
10135;BME280;5107;48.850;8.924;2023-07-13T07:43:07;97015.59;;;24.82;38.93
10135;BME280;5107;48.850;8.924;2023-07-13T07:45:33;97010.06;;;25.79;39.89
10135;BME280;5107;48.850;8.924;2023-07-13T07:47:58;97009.91;;;26.38;37.13
10135;BME280;5107;48.850;8.924;2023-07-13T07:50:28;97004.56;;;26.01;37.62
10135;BME280;5107;48.850;8.924;2023-07-13T07:52:54;96999.78;;;26.70;36.49
10135;BME280;5107;48.850;8.924;2023-07-13T07:55:21;97008.59;;;26.03;37.37
10135;BME280;5107;48.850;8.924;2023-07-13T07:57:46;97010.72;;;27.01;38.25
10135;BME280;5107;48.850;8.924;2023-07-13T08:00:12;97012.38;;;27.47;35.43
10135;BME280;5107;48.850;8.924;2023-07-13T08:02:38;97011.69;;;26.74;35.53
10135;BME280;5107;48.850;8.924;2023-07-13T08:05:04;97017.72;;;26.92;35.48
10135;BME280;5107;48.850;8.924;2023-07-13T08:07:32;97018.28;;;27.09;36.26
10135;BME280;5107;48.850;8.924;2023-07-13T08:09:57;97017.78;;;27.37;35.02
10135;BME280;5107;48.850;8.924;2023-07-13T08:12:22;97019.97;;;27.50;34.02
10135;BME280;5107;48.850;8.924;2023-07-13T08:14:51;97021.50;;;26.91;35.22
10135;BME280;5107;48.850;8.924;2023-07-13T08:17:19;97019.16;;;27.45;34.95
10135;BME280;5107;48.850;8.924;2023-07-13T08:19:45;97017.75;;;27.22;35.25
10135;BME280;5107;48.850;8.924;2023-07-13T08:22:10;97015.38;;;27.36;35.17
10135;BME280;5107;48.850;8.924;2023-07-13T08:24:36;97017.81;;;27.42;34.22
10135;BME280;5107;48.850;8.924;2023-07-13T08:27:02;97025.50;;;25.57;35.21
10135;BME280;5107;48.850;8.924;2023-07-13T08:29:28;97018.31;;;26.04;35.18
10135;BME280;5107;48.850;8.924;2023-07-13T08:31:53;97015.69;;;26.15;36.26
10135;BME280;5107;48.850;8.924;2023-07-13T08:34:19;97019.34;;;26.93;35.30
10135;BME280;5107;48.850;8.924;2023-07-13T08:36:45;97015.59;;;25.62;35.32
10135;BME280;5107;48.850;8.924;2023-07-13T08:39:10;97019.03;;;25.85;36.16
10135;BME280;5107;48.850;8.924;2023-07-13T08:41:37;97014.88;;;25.72;34.85
10135;BME280;5107;48.850;8.924;2023-07-13T08:44:07;97016.84;;;25.23;35.33
10135;BME280;5107;48.850;8.924;2023-07-13T08:46:38;97013.28;;;25.76;36.28
10135;BME280;5107;48.850;8.924;2023-07-13T08:49:11;97012.38;;;26.44;35.09
10135;BME280;5107;48.850;8.924;2023-07-13T08:51:51;97005.78;;;26.25;35.10
10135;BME280;5107;48.850;8.924;2023-07-13T08:54:22;97019.59;;;26.91;34.97
10135;BME280;5107;48.850;8.924;2023-07-13T08:56:51;97023.72;;;27.39;35.17
10135;BME280;5107;48.850;8.924;2023-07-13T08:59:21;97015.00;;;26.97;35.06
10135;BME280;5107;48.850;8.924;2023-07-13T09:02:14;97018.88;;;27.36;33.97
10135;BME280;5107;48.850;8.924;2023-07-13T09:04:50;97026.19;;;28.02;33.41
10135;BME280;5107;48.850;8.924;2023-07-13T09:07:42;97018.38;;;27.65;34.12
10135;BME280;5107;48.850;8.924;2023-07-13T09:10:17;97038.38;;;27.99;34.00
10135;BME280;5107;48.850;8.924;2023-07-13T09:15:24;97027.19;;;28.51;32.14
10135;BME280;5107;48.850;8.924;2023-07-13T09:17:52;97039.47;;;27.83;32.80
10135;BME280;5107;48.850;8.924;2023-07-13T09:20:25;97035.75;;;26.76;34.22
10135;BME280;5107;48.850;8.924;2023-07-13T09:22:52;97033.09;;;26.91;34.21
10135;BME280;5107;48.850;8.924;2023-07-13T09:25:30;97028.88;;;26.53;33.77
10135;BME280;5107;48.850;8.924;2023-07-13T09:27:59;97031.97;;;25.56;34.68
10135;BME280;5107;48.850;8.924;2023-07-13T09:30:41;97025.31;;;24.83;36.26
10135;BME280;5107;48.850;8.924;2023-07-13T09:33:09;97020.69;;;25.96;35.97
10135;BME280;5107;48.850;8.924;2023-07-13T09:35:34;97024.47;;;26.32;34.72
10135;BME280;5107;48.850;8.924;2023-07-13T09:38:11;97026.22;;;26.63;33.86
10135;BME280;5107;48.850;8.924;2023-07-13T09:40:56;97019.69;;;26.44;34.96
10135;BME280;5107;48.850;8.924;2023-07-13T09:43:24;97025.91;;;26.07;35.55
10135;BME280;5107;48.850;8.924;2023-07-13T09:45:50;97021.88;;;26.62;34.69
10135;BME280;5107;48.850;8.924;2023-07-13T09:48:17;97025.31;;;27.05;34.02
10135;BME280;5107;48.850;8.924;2023-07-13T09:50:43;97013.75;;;27.50;33.60
10135;BME280;5107;48.850;8.924;2023-07-13T09:53:18;97016.75;;;27.64;32.89
10135;BME280;5107;48.850;8.924;2023-07-13T09:55:46;97012.81;;;28.46;32.16
10135;BME280;5107;48.850;8.924;2023-07-13T09:58:23;97020.78;;;28.12;32.89
10135;BME280;5107;48.850;8.924;2023-07-13T10:01:15;97017.00;;;27.87;33.24
10135;BME280;5107;48.850;8.924;2023-07-13T10:03:52;97019.78;;;26.79;34.84
10135;BME280;5107;48.850;8.924;2023-07-13T10:06:20;97018.88;;;26.54;34.48
10135;BME280;5107;48.850;8.924;2023-07-13T10:08:52;97013.31;;;26.80;34.41
10135;BME280;5107;48.850;8.924;2023-07-13T10:11:23;97007.19;;;27.05;34.03
10135;BME280;5107;48.850;8.924;2023-07-13T10:13:54;97009.72;;;27.58;34.70
10135;BME280;5107;48.850;8.924;2023-07-13T10:16:22;97002.88;;;28.21;33.48
10135;BME280;5107;48.850;8.924;2023-07-13T10:18:51;97002.81;;;28.51;32.67
10135;BME280;5107;48.850;8.924;2023-07-13T10:21:20;97022.81;;;28.60;32.12
10135;BME280;5107;48.850;8.924;2023-07-13T10:23:55;97015.13;;;27.73;31.99
10135;BME280;5107;48.850;8.924;2023-07-13T10:26:29;97023.69;;;27.09;34.41
10135;BME280;5107;48.850;8.924;2023-07-13T10:28:59;97015.25;;;25.86;34.71
10135;BME280;5107;48.850;8.924;2023-07-13T10:31:26;97013.72;;;25.36;35.97
10135;BME280;5107;48.850;8.924;2023-07-13T10:33:52;97023.13;;;25.92;36.45
10135;BME280;5107;48.850;8.924;2023-07-13T10:36:45;97013.72;;;26.47;34.43
10135;BME280;5107;48.850;8.924;2023-07-13T10:39:18;97025.00;;;25.92;35.50
10135;BME280;5107;48.850;8.924;2023-07-13T10:41:44;97014.59;;;26.53;34.71
10135;BME280;5107;48.850;8.924;2023-07-13T10:44:20;97019.94;;;27.10;34.13
10135;BME280;5107;48.850;8.924;2023-07-13T10:46:46;97025.94;;;27.58;33.01
10135;BME280;5107;48.850;8.924;2023-07-13T10:49:13;97023.97;;;27.07;33.42
10135;BME280;5107;48.850;8.924;2023-07-13T10:51:39;97017.84;;;26.60;33.65
10135;BME280;5107;48.850;8.924;2023-07-13T10:56:34;97007.81;;;26.55;34.92
10135;BME280;5107;48.850;8.924;2023-07-13T10:59:13;97011.63;;;25.70;34.77
10135;BME280;5107;48.850;8.924;2023-07-13T11:04:40;97005.94;;;25.66;35.20
10135;BME280;5107;48.850;8.924;2023-07-13T11:07:17;96998.03;;;26.39;34.89
10135;BME280;5107;48.850;8.924;2023-07-13T11:09:49;96999.34;;;25.52;34.61
10135;BME280;5107;48.850;8.924;2023-07-13T11:23:31;96996.16;;;27.93;32.57
10135;BME280;5107;48.850;8.924;2023-07-13T11:25:38;96989.69;;;27.64;32.42
10135;BME280;5107;48.850;8.924;2023-07-13T11:38:38;96980.69;;;28.04;31.19
10135;BME280;5107;48.850;8.924;2023-07-13T11:41:27;96990.22;;;27.71;31.54
10135;BME280;5107;48.850;8.924;2023-07-13T11:43:55;96987.72;;;28.05;30.90
10135;BME280;5107;48.850;8.924;2023-07-13T11:46:26;96988.75;;;28.44;30.73
10135;BME280;5107;48.850;8.924;2023-07-13T11:48:53;96991.59;;;28.78;30.01
10135;BME280;5107;48.850;8.924;2023-07-13T11:51:27;96988.72;;;29.48;29.38
10135;BME280;5107;48.850;8.924;2023-07-13T11:53:55;96993.44;;;29.66;28.90
10135;BME280;5107;48.850;8.924;2023-07-13T11:56:23;96997.38;;;29.50;29.95
10135;BME280;5107;48.850;8.924;2023-07-13T11:58:53;96993.03;;;29.54;30.38
10135;BME280;5107;48.850;8.924;2023-07-13T12:01:28;96997.06;;;29.56;29.09
10135;BME280;5107;48.850;8.924;2023-07-13T12:03:59;96998.13;;;29.60;29.06
10135;BME280;5107;48.850;8.924;2023-07-13T12:06:28;96989.78;;;29.80;28.66
10135;BME280;5107;48.850;8.924;2023-07-13T12:08:58;96994.88;;;29.19;28.22
10135;BME280;5107;48.850;8.924;2023-07-13T12:11:24;96985.16;;;28.59;29.91
10135;BME280;5107;48.850;8.924;2023-07-13T12:13:50;96987.75;;;28.10;30.58
10135;BME280;5107;48.850;8.924;2023-07-13T12:16:30;96987.72;;;28.25;30.79
10135;BME280;5107;48.850;8.924;2023-07-13T12:19:01;96989.59;;;28.14;30.75
10135;BME280;5107;48.850;8.924;2023-07-13T12:21:33;96981.81;;;28.03;29.81
10135;BME280;5107;48.850;8.924;2023-07-13T12:24:00;96990.75;;;27.83;30.12
10135;BME280;5107;48.850;8.924;2023-07-13T12:26:28;96989.84;;;28.33;30.71
10135;BME280;5107;48.850;8.924;2023-07-13T12:28:55;96984.66;;;28.52;29.83
10135;BME280;5107;48.850;8.924;2023-07-13T12:33:56;96984.28;;;27.59;31.37
10135;BME280;5107;48.850;8.924;2023-07-13T12:36:22;96971.56;;;27.64;31.15
10135;BME280;5107;48.850;8.924;2023-07-13T12:38:48;96986.97;;;27.74;31.10
10135;BME280;5107;48.850;8.924;2023-07-13T12:41:15;96979.91;;;27.98;30.88
10135;BME280;5107;48.850;8.924;2023-07-13T12:43:40;96989.06;;;28.33;30.33
10135;BME280;5107;48.850;8.924;2023-07-13T12:46:26;96992.38;;;27.89;29.87
10135;BME280;5107;48.850;8.924;2023-07-13T12:48:54;96991.56;;;27.93;31.47
10135;BME280;5107;48.850;8.924;2023-07-13T12:51:27;96980.50;;;28.64;31.01
10135;BME280;5107;48.850;8.924;2023-07-13T12:54:05;96985.16;;;28.59;29.45
10135;BME280;5107;48.850;8.924;2023-07-13T12:56:33;96993.13;;;28.15;29.74
10135;BME280;5107;48.850;8.924;2023-07-13T12:59:01;96980.47;;;28.75;30.09
10135;BME280;5107;48.850;8.924;2023-07-13T13:01:29;96982.25;;;28.40;30.00
10135;BME280;5107;48.850;8.924;2023-07-13T13:03:55;96982.69;;;28.62;30.08
10135;BME280;5107;48.850;8.924;2023-07-13T13:06:25;96983.19;;;28.75;30.01
10135;BME280;5107;48.850;8.924;2023-07-13T13:08:53;96977.00;;;28.64;29.35
10135;BME280;5107;48.850;8.924;2023-07-13T13:11:20;96981.66;;;28.48;29.36
10135;BME280;5107;48.850;8.924;2023-07-13T13:13:46;96983.88;;;29.00;29.73
10135;BME280;5107;48.850;8.924;2023-07-13T13:16:31;96979.56;;;29.38;30.11
10135;BME280;5107;48.850;8.924;2023-07-13T13:19:00;96977.22;;;29.22;28.97
10135;BME280;5107;48.850;8.924;2023-07-13T13:21:27;96984.59;;;29.16;29.91
10135;BME280;5107;48.850;8.924;2023-07-13T13:23:53;96978.88;;;29.18;29.69
10135;BME280;5107;48.850;8.924;2023-07-13T13:26:19;96978.63;;;28.70;29.34
10135;BME280;5107;48.850;8.924;2023-07-13T13:28:46;96987.94;;;28.39;30.37
10135;BME280;5107;48.850;8.924;2023-07-13T13:31:13;96987.56;;;28.71;30.33
10135;BME280;5107;48.850;8.924;2023-07-13T13:33:40;96977.22;;;28.73;30.84
10135;BME280;5107;48.850;8.924;2023-07-13T13:36:20;96982.28;;;28.35;30.53
10135;BME280;5107;48.850;8.924;2023-07-13T13:38:48;96979.97;;;28.78;31.77
10135;BME280;5107;48.850;8.924;2023-07-13T13:41:14;96981.81;;;28.82;30.57
10135;BME280;5107;48.850;8.924;2023-07-13T13:43:43;96984.75;;;28.91;30.07
10135;BME280;5107;48.850;8.924;2023-07-13T13:46:24;96981.13;;;28.51;30.43
10135;BME280;5107;48.850;8.924;2023-07-13T13:48:55;96980.97;;;28.07;30.45
10135;BME280;5107;48.850;8.924;2023-07-13T13:51:23;96977.25;;;27.42;31.07